createdAt,value
2023-03-06T00:01:31.588Z,25.00
2023-03-06T00:04:01.323Z,24.50
2023-03-06T00:06:31.085Z,24.00
2023-03-06T00:09:00.674Z,24.80
2023-03-06T00:11:30.321Z,20.10
2023-03-06T00:13:59.913Z,22.40
2023-03-06T00:16:29.585Z,24.50
2023-03-06T00:18:59.247Z,22.30
2023-03-06T00:21:28.872Z,25.60
2023-03-06T00:23:58.540Z,26.50
2023-03-06T00:26:28.202Z,24.80
2023-03-06T00:28:58.590Z,29.40
2023-03-06T00:31:28.301Z,27.30
2023-03-06T00:33:57.901Z,30.40
2023-03-06T00:36:27.518Z,31.60
2023-03-06T00:38:58.323Z,31.70
2023-03-06T00:41:27.905Z,35.20
2023-03-06T00:43:58.362Z,36.90
2023-03-06T00:46:27.901Z,31.20
2023-03-06T00:48:58.742Z,34.70
2023-03-06T00:51:28.802Z,36.60
2023-03-06T00:53:58.408Z,35.50
2023-03-06T00:56:30.090Z,35.70
2023-03-06T00:58:59.896Z,34.20
2023-03-06T01:01:30.554Z,37.50
2023-03-06T01:04:00.112Z,36.90
2023-03-06T01:06:29.854Z,36.40
2023-03-06T01:08:59.543Z,41.20
2023-03-06T01:11:29.150Z,36.50
2023-03-06T01:13:58.761Z,37.20
2023-03-06T01:16:28.900Z,34.80
2023-03-06T01:18:58.566Z,35.70
2023-03-06T01:21:28.802Z,40.50
2023-03-06T01:23:59.475Z,36.00
2023-03-06T01:26:29.801Z,37.50
2023-03-06T01:28:59.815Z,36.20
2023-03-06T01:31:31.163Z,35.70
2023-03-06T01:34:01.394Z,31.80
2023-03-06T01:36:31.228Z,37.60
2023-03-06T01:39:03.103Z,30.90
2023-03-06T01:41:33.597Z,30.90
2023-03-06T01:44:03.561Z,28.30
2023-03-06T01:46:42.385Z,32.40
2023-03-06T01:49:21.003Z,26.10
2023-03-06T01:51:55.648Z,26.50
2023-03-06T01:54:28.737Z,24.70
2023-03-06T01:57:05.460Z,25.40
2023-03-06T01:59:38.305Z,25.70
2023-03-06T02:02:12.717Z,25.40
2023-03-06T02:04:43.638Z,26.70
2023-03-06T02:07:14.317Z,25.70
2023-03-06T02:09:43.875Z,24.70
2023-03-06T02:12:17.577Z,28.40
2023-03-06T02:14:47.709Z,25.40
2023-03-06T02:17:21.389Z,28.90
2023-03-06T02:19:59.570Z,26.20
2023-03-06T02:22:36.791Z,28.00
2023-03-06T02:25:14.833Z,25.90
2023-03-06T02:27:44.738Z,27.10
2023-03-06T02:30:17.690Z,26.60
2023-03-06T02:32:47.409Z,26.50
2023-03-06T02:35:21.772Z,24.90
2023-03-06T02:37:51.516Z,26.20
2023-03-06T02:40:23.358Z,23.80
2023-03-06T02:42:56.622Z,22.70
2023-03-06T02:45:32.822Z,23.00
2023-03-06T02:48:03.801Z,22.90
2023-03-06T02:50:34.021Z,22.20
2023-03-06T02:53:05.676Z,24.50
2023-03-06T02:55:35.955Z,22.60
2023-03-06T02:58:06.862Z,23.00
2023-03-06T03:00:37.484Z,20.40
2023-03-06T03:03:08.830Z,21.30
2023-03-06T03:05:39.573Z,21.80
2023-03-06T03:08:15.468Z,22.70
2023-03-06T03:10:45.874Z,20.60
2023-03-06T03:13:16.227Z,21.00
2023-03-06T03:15:46.817Z,20.60
2023-03-06T03:18:16.561Z,19.70
2023-03-06T03:20:46.217Z,20.60
2023-03-06T03:23:15.808Z,20.60
2023-03-06T03:25:45.610Z,19.60
2023-03-06T03:28:16.598Z,21.60
2023-03-06T03:30:46.365Z,21.10
2023-03-06T03:33:16.875Z,20.60
2023-03-06T03:35:56.831Z,19.50
2023-03-06T03:38:27.564Z,18.00
2023-03-06T03:40:57.797Z,21.20
2023-03-06T03:43:28.796Z,20.00
2023-03-06T03:45:58.873Z,18.10
2023-03-06T03:48:29.446Z,20.90
2023-03-06T03:51:06.501Z,19.00
2023-03-06T03:53:37.325Z,21.50
2023-03-06T03:56:08.631Z,19.40
2023-03-06T03:58:43.246Z,22.00
2023-03-06T04:01:13.165Z,20.20
2023-03-06T04:03:43.401Z,19.70
2023-03-06T04:06:14.342Z,20.80
2023-03-06T04:08:44.908Z,23.20
2023-03-06T04:11:15.273Z,22.60
2023-03-06T04:13:44.995Z,24.60
2023-03-06T04:16:14.648Z,23.60
2023-03-06T04:18:44.782Z,22.70
2023-03-06T04:21:14.384Z,20.80
2023-03-06T04:23:44.922Z,21.20
2023-03-06T04:26:15.599Z,21.70
2023-03-06T04:28:46.755Z,21.70
2023-03-06T04:31:17.062Z,22.80
2023-03-06T04:33:47.630Z,22.50
2023-03-06T04:36:28.353Z,23.70
2023-03-06T04:39:02.031Z,23.50
2023-03-06T04:41:32.725Z,21.50
2023-03-06T04:44:02.489Z,22.50
2023-03-06T04:46:33.463Z,22.80
2023-03-06T04:49:03.853Z,24.70
2023-03-06T04:51:36.897Z,22.80
2023-03-06T04:54:07.409Z,22.50
2023-03-06T04:56:36.950Z,24.10
2023-03-06T04:59:06.888Z,24.50
2023-03-06T05:01:38.596Z,25.70
2023-03-06T05:04:08.239Z,24.50
2023-03-06T05:06:38.847Z,24.30
2023-03-06T05:09:09.085Z,25.20
2023-03-06T05:11:39.692Z,23.60
2023-03-06T05:14:09.817Z,23.90
2023-03-06T05:16:39.448Z,26.40
2023-03-06T05:19:09.651Z,23.60
2023-03-06T05:21:39.211Z,29.20
2023-03-06T05:24:09.583Z,47.60
2023-03-06T05:26:39.125Z,32.20
2023-03-06T05:29:09.732Z,44.10
2023-03-06T05:31:39.396Z,45.10
2023-03-06T05:34:09.722Z,37.60
2023-03-06T05:36:39.948Z,36.90
2023-03-06T05:39:10.286Z,37.60
2023-03-06T05:41:40.752Z,37.20
2023-03-06T05:44:10.352Z,33.10
2023-03-06T05:46:39.887Z,33.40
2023-03-06T05:49:09.966Z,41.50
2023-03-06T05:51:40.624Z,36.70
2023-03-06T05:54:10.162Z,36.70
2023-03-06T05:56:42.793Z,40.30
2023-03-06T05:59:13.645Z,45.30
2023-03-06T06:01:43.768Z,59.30
2023-03-06T06:04:13.378Z,66.20
2023-03-06T06:06:43.046Z,55.60
2023-03-06T06:09:13.954Z,46.60
2023-03-06T06:11:43.628Z,43.60
2023-03-06T06:14:14.300Z,41.60
2023-03-06T06:16:44.232Z,41.90
2023-03-06T06:19:17.999Z,44.00
2023-03-06T06:21:49.817Z,37.60
2023-03-06T06:24:21.550Z,39.80
2023-03-06T06:26:53.013Z,37.00
2023-03-06T06:29:23.552Z,39.30
2023-03-06T06:31:54.084Z,36.20
2023-03-06T06:34:24.536Z,33.00
2023-03-06T06:36:55.018Z,38.30
2023-03-06T06:39:25.065Z,40.80
2023-03-06T06:42:11.507Z,40.10
2023-03-06T06:44:44.289Z,40.10
2023-03-06T06:47:24.058Z,38.90
2023-03-06T06:49:56.144Z,38.50
2023-03-06T06:52:26.080Z,38.20
2023-03-06T06:54:56.649Z,37.80
2023-03-06T06:57:26.209Z,39.30
2023-03-06T06:59:55.838Z,36.40
2023-03-06T07:02:25.739Z,30.50
2023-03-06T07:05:05.073Z,32.00
2023-03-06T07:07:36.989Z,65.20
2023-03-06T07:10:12.404Z,68.50
2023-03-06T07:12:42.026Z,177.70
2023-03-06T07:15:15.754Z,176.10
2023-03-06T07:17:48.187Z,78.10
2023-03-06T07:20:21.005Z,46.90
2023-03-06T07:22:51.931Z,125.80
2023-03-06T07:25:22.401Z,78.70
2023-03-06T07:27:54.483Z,47.30
2023-03-06T07:30:25.330Z,39.10
2023-03-06T07:32:56.384Z,35.80
2023-03-06T07:35:27.683Z,39.30
2023-03-06T07:37:57.441Z,37.90
2023-03-06T07:40:27.799Z,39.50
2023-03-06T07:43:12.952Z,41.60
2023-03-06T07:45:56.886Z,39.80
2023-03-06T07:48:26.634Z,39.60
2023-03-06T07:51:01.629Z,41.10
2023-03-06T07:53:31.548Z,39.90
2023-03-06T07:56:01.619Z,39.40
2023-03-06T07:58:31.227Z,40.20
2023-03-06T08:01:04.845Z,37.90
2023-03-06T08:03:34.684Z,41.60
2023-03-06T08:06:10.137Z,41.50
2023-03-06T08:08:41.211Z,38.30
2023-03-06T08:11:12.346Z,41.10
2023-03-06T08:13:42.025Z,41.50
2023-03-06T08:16:12.687Z,41.40
2023-03-06T08:18:45.140Z,41.50
2023-03-06T08:21:18.378Z,41.70
2023-03-06T08:23:48.669Z,37.80
2023-03-06T08:26:21.042Z,40.30
2023-03-06T08:28:51.941Z,42.90
2023-03-06T08:31:27.954Z,36.70
2023-03-06T08:34:00.884Z,38.50
2023-03-06T08:36:31.089Z,35.70
2023-03-06T08:39:01.037Z,36.40
2023-03-06T08:41:31.151Z,35.30
2023-03-06T08:44:01.103Z,35.60
2023-03-06T08:46:31.746Z,36.20
2023-03-06T08:49:01.625Z,39.90
2023-03-06T08:51:31.352Z,41.00
2023-03-06T08:54:01.604Z,39.20
2023-03-06T08:56:32.597Z,43.80
2023-03-06T08:59:04.464Z,48.70
2023-03-06T09:01:37.129Z,48.10
2023-03-06T09:04:10.090Z,47.90
2023-03-06T09:06:41.960Z,45.70
2023-03-06T09:09:12.999Z,52.50
2023-03-06T09:11:42.611Z,56.30
2023-03-06T09:14:12.211Z,51.10
2023-03-06T09:16:41.915Z,52.80
2023-03-06T09:19:12.265Z,49.90
2023-03-06T09:21:41.900Z,48.90
2023-03-06T09:24:11.598Z,49.80
2023-03-06T09:26:47.032Z,51.40
2023-03-06T09:29:17.719Z,55.20
2023-03-06T09:31:47.692Z,49.90
2023-03-06T09:34:18.168Z,48.80
2023-03-06T09:36:56.750Z,57.10
2023-03-06T09:39:27.522Z,50.20
2023-03-06T09:41:58.242Z,48.40
2023-03-06T09:44:30.468Z,44.40
2023-03-06T09:47:25.247Z,42.50
2023-03-06T09:50:09.264Z,37.10
2023-03-06T09:52:46.077Z,38.40
2023-03-06T09:55:18.496Z,39.40
2023-03-06T09:57:56.765Z,33.50
2023-03-06T10:00:32.907Z,31.50
2023-03-06T10:03:14.422Z,36.30
2023-03-06T10:05:47.503Z,73.30
2023-03-06T10:08:25.093Z,63.90
2023-03-06T10:11:01.522Z,52.90
2023-03-06T10:13:39.499Z,44.40
2023-03-06T10:16:22.080Z,42.70
2023-03-06T10:18:52.295Z,38.60
2023-03-06T10:21:32.606Z,37.40
2023-03-06T10:24:13.593Z,41.60
2023-03-06T10:26:49.654Z,38.90
2023-03-06T10:29:40.179Z,35.50
2023-03-06T10:32:18.664Z,45.30
2023-03-06T10:34:49.704Z,40.30
2023-03-06T10:37:21.881Z,39.00
2023-03-06T10:39:57.489Z,37.80
2023-03-06T10:42:28.919Z,40.40
2023-03-06T10:45:12.626Z,46.10
2023-03-06T10:47:43.610Z,64.90
2023-03-06T10:50:28.256Z,43.60
2023-03-06T10:53:04.469Z,37.10
2023-03-06T10:55:35.727Z,35.40
2023-03-06T10:58:27.926Z,38.00
2023-03-06T11:01:07.564Z,33.90
2023-03-06T11:03:37.701Z,32.30
2023-03-06T11:06:12.886Z,31.10
2023-03-06T11:08:45.281Z,33.20
2023-03-06T11:11:35.253Z,35.80
2023-03-06T11:14:16.321Z,23.30
2023-03-06T11:16:52.412Z,31.10
2023-03-06T11:19:27.071Z,29.80
2023-03-06T11:22:05.372Z,25.50
2023-03-06T11:24:39.631Z,28.40
2023-03-06T11:27:22.733Z,23.10
2023-03-06T11:29:54.703Z,22.50
2023-03-06T11:32:28.773Z,25.80
2023-03-06T11:35:04.129Z,24.30
2023-03-06T11:37:45.862Z,25.30
2023-03-06T11:40:23.182Z,26.20
2023-03-06T11:43:01.121Z,24.70
2023-03-06T11:45:36.688Z,22.30
2023-03-06T11:48:22.095Z,25.20
2023-03-06T11:50:53.626Z,27.90
2023-03-06T11:53:30.408Z,26.00
2023-03-06T11:56:09.762Z,32.80
2023-03-06T11:59:11.307Z,30.60
2023-03-06T12:01:45.907Z,28.10
2023-03-06T12:04:31.820Z,26.10
2023-03-06T12:07:15.485Z,25.90
2023-03-06T12:09:52.634Z,27.10
2023-03-06T12:12:38.745Z,26.00
2023-03-06T12:15:21.557Z,24.40
2023-03-06T12:18:19.794Z,24.50
2023-03-06T12:20:56.924Z,25.40
2023-03-06T12:23:50.027Z,26.50
2023-03-06T12:26:36.683Z,26.30
2023-03-06T12:29:28.572Z,34.90
2023-03-06T12:32:14.170Z,28.00
2023-03-06T12:35:01.525Z,26.30
2023-03-06T12:37:45.482Z,27.80
2023-03-06T12:40:36.008Z,26.60
2023-03-06T12:43:26.209Z,26.50
2023-03-06T12:46:01.969Z,29.70
2023-03-06T12:48:36.500Z,32.10
2023-03-06T12:51:10.817Z,33.20
2023-03-06T12:53:42.133Z,31.10
2023-03-06T12:56:17.257Z,31.40
2023-03-06T12:58:52.661Z,33.30
2023-03-06T13:02:04.047Z,43.50
2023-03-06T13:04:48.159Z,32.50
2023-03-06T13:07:42.333Z,39.00
2023-03-06T13:10:22.223Z,33.60
2023-03-06T13:12:56.290Z,28.60
2023-03-06T13:16:04.527Z,28.30
2023-03-06T13:19:03.926Z,25.00
2023-03-06T13:22:08.196Z,28.70
2023-03-06T13:24:37.936Z,25.90
2023-03-06T13:27:11.366Z,30.60
2023-03-06T13:30:19.011Z,33.40
2023-03-06T13:32:52.143Z,26.90
2023-03-06T13:35:54.433Z,27.80
2023-03-06T13:38:56.444Z,35.10
2023-03-06T13:41:57.694Z,27.90
2023-03-06T13:44:49.626Z,28.10
2023-03-06T13:47:32.300Z,30.40
2023-03-06T13:50:12.323Z,23.80
2023-03-06T13:52:55.162Z,24.20
2023-03-06T13:55:31.170Z,26.60
2023-03-06T13:58:17.123Z,26.20
2023-03-06T14:01:07.143Z,44.80
2023-03-06T14:04:01.603Z,92.90
2023-03-06T14:06:52.603Z,96.80
2023-03-06T14:09:28.192Z,49.10
2023-03-06T14:12:01.691Z,37.20
2023-03-06T14:14:38.785Z,60.90
2023-03-06T14:17:20.174Z,67.00
2023-03-06T14:19:51.361Z,53.10
2023-03-06T14:22:24.932Z,67.30
2023-03-06T14:25:00.143Z,42.20
2023-03-06T14:27:48.357Z,49.10
2023-03-06T14:30:20.974Z,54.60
2023-03-06T14:32:52.708Z,82.00
2023-03-06T14:35:29.918Z,67.10
2023-03-06T14:38:05.669Z,46.60
2023-03-06T14:40:41.313Z,42.30
2023-03-06T14:43:25.776Z,35.30
2023-03-06T14:46:01.117Z,39.90
2023-03-06T14:48:44.061Z,37.60
2023-03-06T14:51:19.163Z,64.10
2023-03-06T14:53:50.938Z,54.60
2023-03-06T14:56:25.973Z,52.80
2023-03-06T14:58:59.335Z,71.80
2023-03-06T15:01:34.285Z,79.60
2023-03-06T15:04:13.360Z,47.30
2023-03-06T15:06:45.088Z,49.60
2023-03-06T15:09:20.577Z,78.20
2023-03-06T15:11:56.319Z,80.10
2023-03-06T15:14:36.404Z,70.30
2023-03-06T15:17:38.565Z,60.80
2023-03-06T15:20:41.302Z,69.40
2023-03-06T15:23:34.170Z,61.20
2023-03-06T15:26:18.773Z,64.80
2023-03-06T15:29:03.589Z,49.20
2023-03-06T15:31:40.440Z,65.60
2023-03-06T15:34:22.860Z,79.00
2023-03-06T15:36:54.584Z,75.80
2023-03-06T15:39:33.043Z,54.20
2023-03-06T15:42:08.031Z,149.50
2023-03-06T15:44:37.627Z,167.80
2023-03-06T15:47:11.345Z,127.50
2023-03-06T15:49:41.260Z,100.80
2023-03-06T15:52:10.931Z,85.00
2023-03-06T15:54:40.562Z,66.60
2023-03-06T15:57:19.477Z,52.00
2023-03-06T15:59:49.515Z,48.10
2023-03-06T16:02:21.067Z,41.80
2023-03-06T16:04:52.006Z,42.10
2023-03-06T16:07:21.677Z,62.90
2023-03-06T16:09:51.271Z,51.20
2023-03-06T16:12:22.671Z,45.00
2023-03-06T16:14:52.315Z,38.80
2023-03-06T16:17:21.865Z,37.60
2023-03-06T16:19:51.469Z,39.90
2023-03-06T16:22:21.010Z,37.00
2023-03-06T16:24:51.330Z,45.00
2023-03-06T16:27:25.041Z,43.30
2023-03-06T16:29:54.609Z,42.00
2023-03-06T16:32:26.056Z,42.10
2023-03-06T16:34:57.250Z,47.60
2023-03-06T16:37:26.930Z,84.50
2023-03-06T16:39:56.484Z,97.30
2023-03-06T16:42:26.154Z,79.30
2023-03-06T16:44:55.873Z,86.70
2023-03-06T16:47:25.622Z,76.90
2023-03-06T16:49:57.470Z,63.30
2023-03-06T16:52:27.206Z,134.80
2023-03-06T16:54:56.746Z,65.90
2023-03-06T16:57:30.995Z,47.50
2023-03-06T17:00:00.824Z,57.20
2023-03-06T17:02:30.484Z,43.10
2023-03-06T17:05:00.191Z,42.60
2023-03-06T17:07:29.793Z,66.50
2023-03-06T17:09:59.533Z,42.00
2023-03-06T17:12:29.170Z,50.50
2023-03-06T17:14:58.921Z,52.60
2023-03-06T17:17:28.482Z,45.50
2023-03-06T17:19:58.302Z,38.10
2023-03-06T17:22:28.489Z,35.90
2023-03-06T17:24:58.109Z,49.20
2023-03-06T17:27:28.153Z,40.00
2023-03-06T17:29:58.346Z,33.20
2023-03-06T17:32:28.677Z,33.40
2023-03-06T17:34:58.697Z,34.00
2023-03-06T17:37:28.442Z,34.20
2023-03-06T17:39:58.040Z,36.80
2023-03-06T17:42:27.704Z,35.80
2023-03-06T17:44:57.246Z,33.10
2023-03-06T17:47:26.877Z,38.90
2023-03-06T17:49:56.452Z,34.10
2023-03-06T17:52:26.277Z,33.90
2023-03-06T17:54:55.872Z,37.20
2023-03-06T17:57:25.469Z,35.40
2023-03-06T17:59:55.927Z,37.30
2023-03-06T18:02:25.539Z,41.00
2023-03-06T18:04:57.577Z,37.80
2023-03-06T18:07:27.252Z,39.70
2023-03-06T18:09:56.837Z,38.40
2023-03-06T18:12:26.506Z,40.60
2023-03-06T18:14:56.317Z,40.10
2023-03-06T18:17:25.967Z,38.20
2023-03-06T18:19:56.274Z,38.30
2023-03-06T18:22:25.945Z,36.30
2023-03-06T18:24:55.543Z,38.30
2023-03-06T18:27:25.224Z,37.60
2023-03-06T18:29:55.116Z,39.70
2023-03-06T18:32:24.764Z,36.20
2023-03-06T18:34:55.194Z,39.30
2023-03-06T18:37:24.861Z,44.50
2023-03-06T18:39:54.505Z,49.70
2023-03-06T18:42:24.140Z,84.70
2023-03-06T18:44:53.743Z,95.90
2023-03-06T18:47:23.364Z,86.10
2023-03-06T18:49:52.950Z,65.40
2023-03-06T18:52:22.526Z,72.40
2023-03-06T18:54:52.948Z,79.00
2023-03-06T18:57:22.741Z,80.30
2023-03-06T18:59:52.455Z,112.60
2023-03-06T19:02:22.083Z,92.30
2023-03-06T19:04:52.856Z,84.20
2023-03-06T19:07:22.433Z,72.30
2023-03-06T19:09:52.029Z,70.20
2023-03-06T19:12:21.749Z,71.10
2023-03-06T19:14:51.579Z,76.50
2023-03-06T19:17:21.578Z,84.90
2023-03-06T19:19:52.185Z,70.80
2023-03-06T19:22:22.572Z,44.20
2023-03-06T19:24:52.139Z,46.70
2023-03-06T19:27:21.804Z,52.90
2023-03-06T19:29:51.434Z,50.20
2023-03-06T19:32:21.712Z,44.60
2023-03-06T19:34:51.520Z,44.40
2023-03-06T19:37:21.153Z,55.00
2023-03-06T19:39:50.882Z,49.60
2023-03-06T19:42:20.597Z,41.90
2023-03-06T19:44:50.206Z,34.10
2023-03-06T19:47:19.841Z,30.20
2023-03-06T19:49:49.431Z,32.40
2023-03-06T19:52:19.094Z,31.00
2023-03-06T19:54:48.673Z,31.40
2023-03-06T19:57:18.920Z,29.40
2023-03-06T19:59:51.558Z,30.40
2023-03-06T20:02:25.944Z,32.00
2023-03-06T20:04:56.249Z,32.90
2023-03-06T20:07:25.972Z,32.80
2023-03-06T20:09:59.806Z,34.50
2023-03-06T20:12:29.865Z,34.20
2023-03-06T20:14:59.475Z,32.90
2023-03-06T20:17:29.475Z,35.30
2023-03-06T20:19:59.689Z,34.20
2023-03-06T20:22:29.281Z,32.70
2023-03-06T20:24:58.873Z,36.80
2023-03-06T20:27:28.510Z,34.50
2023-03-06T20:29:58.352Z,32.70
2023-03-06T20:32:28.133Z,33.50
2023-03-06T20:34:57.869Z,31.70
2023-03-06T20:37:27.501Z,29.00
2023-03-06T20:39:57.178Z,30.20
2023-03-06T20:42:26.817Z,32.80
2023-03-06T20:44:56.833Z,31.30
2023-03-06T20:47:26.646Z,27.50
2023-03-06T20:49:56.656Z,27.00
2023-03-06T20:52:26.412Z,29.00
2023-03-06T20:54:55.949Z,25.50
2023-03-06T20:57:25.657Z,28.70
2023-03-06T20:59:55.258Z,26.80
2023-03-06T21:02:24.868Z,28.90
2023-03-06T21:04:55.227Z,28.00
2023-03-06T21:07:24.892Z,28.40
2023-03-06T21:09:54.514Z,27.70
2023-03-06T21:12:24.124Z,28.70
2023-03-06T21:14:53.714Z,28.60
2023-03-06T21:17:24.974Z,27.70
2023-03-06T21:19:54.611Z,28.60
2023-03-06T21:22:24.153Z,27.60
2023-03-06T21:24:54.038Z,25.40
2023-03-06T21:27:23.687Z,28.20
2023-03-06T21:29:53.293Z,29.60
2023-03-06T21:32:23.064Z,29.90
2023-03-06T21:34:52.881Z,34.30
2023-03-06T21:37:22.665Z,35.20
2023-03-06T21:39:52.399Z,32.90
2023-03-06T21:42:22.017Z,31.40
2023-03-06T21:44:51.569Z,33.20
2023-03-06T21:47:21.207Z,37.20
2023-03-06T21:49:50.784Z,33.40
2023-03-06T21:52:20.319Z,34.20
2023-03-06T21:54:51.227Z,32.10
2023-03-06T21:57:20.798Z,34.80
2023-03-06T21:59:50.352Z,33.80
2023-03-06T22:02:19.974Z,34.30
2023-03-06T22:04:52.123Z,33.10
2023-03-06T22:07:26.876Z,32.30
2023-03-06T22:09:56.522Z,35.60
2023-03-06T22:12:26.183Z,36.90
2023-03-06T22:14:56.240Z,36.70
2023-03-06T22:17:25.869Z,36.80
2023-03-06T22:19:55.493Z,34.30
2023-03-06T22:22:25.495Z,36.30
2023-03-06T22:24:55.172Z,41.20
2023-03-06T22:27:24.935Z,37.50
2023-03-06T22:29:54.526Z,37.10
2023-03-06T22:32:24.229Z,37.40
2023-03-06T22:34:53.877Z,39.40
2023-03-06T22:37:23.438Z,39.80
2023-03-06T22:39:53.038Z,37.60
2023-03-06T22:42:22.617Z,38.60
2023-03-06T22:44:52.430Z,39.40
2023-03-06T22:47:22.000Z,39.30
2023-03-06T22:49:51.537Z,40.40
2023-03-06T22:52:21.134Z,42.20
2023-03-06T22:54:50.726Z,43.90
2023-03-06T22:57:20.251Z,43.60
2023-03-06T22:59:49.830Z,44.40
2023-03-06T23:02:19.351Z,47.10
2023-03-06T23:04:52.682Z,42.70
2023-03-06T23:07:22.229Z,44.40
2023-03-06T23:09:51.828Z,46.40
2023-03-06T23:12:41.120Z,50.90
2023-03-06T23:15:29.653Z,50.60
2023-03-06T23:18:17.912Z,47.30
2023-03-06T23:21:08.749Z,52.60
2023-03-06T23:23:57.152Z,53.40
2023-03-06T23:26:28.509Z,49.80
2023-03-06T23:28:58.418Z,53.90
2023-03-06T23:31:29.789Z,55.20
2023-03-06T23:34:01.381Z,53.70
2023-03-06T23:36:31.756Z,55.90
2023-03-06T23:39:01.335Z,54.80
2023-03-06T23:41:31.193Z,53.50
2023-03-06T23:44:01.133Z,58.20
2023-03-06T23:46:30.750Z,61.40
2023-03-06T23:49:00.325Z,61.50
2023-03-06T23:51:29.895Z,67.00
2023-03-06T23:54:00.394Z,58.70
2023-03-06T23:56:30.442Z,64.60
2023-03-06T23:59:00.151Z,65.50
